sensor_id;sensor_type;location;lat;lon;timestamp;P1;durP1;ratioP1;P2;durP2;ratioP2
36233;SDS011;43467;50.890;5.982;2023-08-12T00:01:48;17.13;;;12.18;;
36233;SDS011;43467;50.890;5.982;2023-08-12T00:04:14;18.02;;;12.77;;
36233;SDS011;43467;50.890;5.982;2023-08-12T00:06:41;17.95;;;13.75;;
36233;SDS011;43467;50.890;5.982;2023-08-12T00:09:07;17.98;;;13.63;;
36233;SDS011;43467;50.890;5.982;2023-08-12T00:11:36;17.15;;;14.30;;
36233;SDS011;43467;50.890;5.982;2023-08-12T00:14:02;18.20;;;14.45;;
36233;SDS011;43467;50.890;5.982;2023-08-12T00:16:28;17.75;;;13.70;;
36233;SDS011;43467;50.890;5.982;2023-08-12T00:18:53;17.25;;;12.80;;
36233;SDS011;43467;50.890;5.982;2023-08-12T00:21:18;14.88;;;12.85;;
36233;SDS011;43467;50.890;5.982;2023-08-12T00:23:45;16.90;;;13.02;;
36233;SDS011;43467;50.890;5.982;2023-08-12T00:26:12;19.02;;;14.43;;
36233;SDS011;43467;50.890;5.982;2023-08-12T00:28:38;19.75;;;14.63;;
36233;SDS011;43467;50.890;5.982;2023-08-12T00:31:03;21.35;;;15.00;;
36233;SDS011;43467;50.890;5.982;2023-08-12T00:33:29;22.70;;;15.23;;
36233;SDS011;43467;50.890;5.982;2023-08-12T00:35:55;18.00;;;14.60;;
36233;SDS011;43467;50.890;5.982;2023-08-12T00:38:20;18.95;;;13.98;;
36233;SDS011;43467;50.890;5.982;2023-08-12T00:40:46;19.00;;;14.88;;
36233;SDS011;43467;50.890;5.982;2023-08-12T00:43:11;22.90;;;16.25;;
36233;SDS011;43467;50.890;5.982;2023-08-12T00:45:37;20.90;;;16.55;;
36233;SDS011;43467;50.890;5.982;2023-08-12T00:48:03;20.23;;;15.45;;
36233;SDS011;43467;50.890;5.982;2023-08-12T00:50:29;21.83;;;16.42;;
36233;SDS011;43467;50.890;5.982;2023-08-12T00:52:55;22.20;;;13.93;;
36233;SDS011;43467;50.890;5.982;2023-08-12T00:55:22;23.70;;;17.15;;
36233;SDS011;43467;50.890;5.982;2023-08-12T00:57:48;26.00;;;17.27;;
36233;SDS011;43467;50.890;5.982;2023-08-12T01:00:15;21.10;;;14.40;;
36233;SDS011;43467;50.890;5.982;2023-08-12T01:02:45;23.58;;;16.60;;
36233;SDS011;43467;50.890;5.982;2023-08-12T01:05:16;22.35;;;15.93;;
36233;SDS011;43467;50.890;5.982;2023-08-12T01:07:42;25.45;;;16.63;;
36233;SDS011;43467;50.890;5.982;2023-08-12T01:10:08;23.73;;;15.68;;
36233;SDS011;43467;50.890;5.982;2023-08-12T01:17:41;23.40;;;16.98;;
36233;SDS011;43467;50.890;5.982;2023-08-12T01:20:09;22.80;;;13.85;;
36233;SDS011;43467;50.890;5.982;2023-08-12T01:22:39;28.50;;;17.20;;
36233;SDS011;43467;50.890;5.982;2023-08-12T01:25:06;23.58;;;16.60;;
36233;SDS011;43467;50.890;5.982;2023-08-12T01:27:34;20.50;;;14.40;;
36233;SDS011;43467;50.890;5.982;2023-08-12T01:30:00;25.40;;;15.95;;
36233;SDS011;43467;50.890;5.982;2023-08-12T01:32:37;18.50;;;13.50;;
36233;SDS011;43467;50.890;5.982;2023-08-12T01:35:18;22.10;;;15.60;;
36233;SDS011;43467;50.890;5.982;2023-08-12T01:37:48;21.73;;;13.75;;
36233;SDS011;43467;50.890;5.982;2023-08-12T01:40:16;19.02;;;13.20;;
36233;SDS011;43467;50.890;5.982;2023-08-12T01:42:46;20.25;;;13.38;;
36233;SDS011;43467;50.890;5.982;2023-08-12T01:45:13;17.90;;;14.00;;
36233;SDS011;43467;50.890;5.982;2023-08-12T01:47:42;19.95;;;12.93;;
36233;SDS011;43467;50.890;5.982;2023-08-12T01:50:09;18.27;;;13.10;;
36233;SDS011;43467;50.890;5.982;2023-08-12T01:52:35;22.83;;;12.70;;
36233;SDS011;43467;50.890;5.982;2023-08-12T01:55:01;20.58;;;12.95;;
36233;SDS011;43467;50.890;5.982;2023-08-12T01:57:26;17.25;;;12.55;;
36233;SDS011;43467;50.890;5.982;2023-08-12T01:59:52;20.10;;;13.15;;
36233;SDS011;43467;50.890;5.982;2023-08-12T02:02:18;19.13;;;12.75;;
36233;SDS011;43467;50.890;5.982;2023-08-12T02:04:43;18.83;;;12.60;;
36233;SDS011;43467;50.890;5.982;2023-08-12T02:07:09;22.08;;;13.95;;
36233;SDS011;43467;50.890;5.982;2023-08-12T02:09:35;19.30;;;14.02;;
36233;SDS011;43467;50.890;5.982;2023-08-12T02:12:01;17.35;;;13.30;;
36233;SDS011;43467;50.890;5.982;2023-08-12T02:14:26;23.00;;;14.50;;
36233;SDS011;43467;50.890;5.982;2023-08-12T02:16:52;20.33;;;13.85;;
36233;SDS011;43467;50.890;5.982;2023-08-12T02:19:17;15.13;;;11.27;;
36233;SDS011;43467;50.890;5.982;2023-08-12T02:21:43;19.88;;;13.20;;
36233;SDS011;43467;50.890;5.982;2023-08-12T02:24:08;16.63;;;10.60;;
36233;SDS011;43467;50.890;5.982;2023-08-12T02:26:34;15.30;;;10.23;;
36233;SDS011;43467;50.890;5.982;2023-08-12T02:29:00;14.88;;;10.98;;
36233;SDS011;43467;50.890;5.982;2023-08-12T02:31:26;14.65;;;10.48;;
36233;SDS011;43467;50.890;5.982;2023-08-12T02:33:51;21.80;;;10.63;;
36233;SDS011;43467;50.890;5.982;2023-08-12T02:36:17;16.33;;;10.77;;
36233;SDS011;43467;50.890;5.982;2023-08-12T02:38:43;15.23;;;9.55;;
36233;SDS011;43467;50.890;5.982;2023-08-12T02:41:12;14.73;;;11.07;;
36233;SDS011;43467;50.890;5.982;2023-08-12T02:43:38;14.05;;;9.82;;
36233;SDS011;43467;50.890;5.982;2023-08-12T02:46:03;14.73;;;9.80;;
36233;SDS011;43467;50.890;5.982;2023-08-12T02:48:29;13.38;;;10.02;;
36233;SDS011;43467;50.890;5.982;2023-08-12T02:50:54;19.95;;;10.35;;
36233;SDS011;43467;50.890;5.982;2023-08-12T02:53:20;17.23;;;10.88;;
36233;SDS011;43467;50.890;5.982;2023-08-12T02:55:46;15.38;;;10.60;;
36233;SDS011;43467;50.890;5.982;2023-08-12T02:58:11;17.80;;;10.77;;
36233;SDS011;43467;50.890;5.982;2023-08-12T03:00:37;13.90;;;10.43;;
36233;SDS011;43467;50.890;5.982;2023-08-12T03:03:06;16.20;;;10.73;;
36233;SDS011;43467;50.890;5.982;2023-08-12T03:05:33;15.77;;;10.73;;
36233;SDS011;43467;50.890;5.982;2023-08-12T03:07:58;15.25;;;10.05;;
36233;SDS011;43467;50.890;5.982;2023-08-12T03:10:26;13.50;;;10.25;;
36233;SDS011;43467;50.890;5.982;2023-08-12T03:12:52;13.45;;;8.63;;
36233;SDS011;43467;50.890;5.982;2023-08-12T03:15:18;12.95;;;9.15;;
36233;SDS011;43467;50.890;5.982;2023-08-12T03:17:44;15.88;;;11.10;;
36233;SDS011;43467;50.890;5.982;2023-08-12T03:20:10;16.38;;;11.23;;
36233;SDS011;43467;50.890;5.982;2023-08-12T03:22:36;20.63;;;11.30;;
36233;SDS011;43467;50.890;5.982;2023-08-12T03:25:02;14.30;;;9.45;;
36233;SDS011;43467;50.890;5.982;2023-08-12T03:27:28;13.48;;;9.63;;
36233;SDS011;43467;50.890;5.982;2023-08-12T03:29:54;15.15;;;9.20;;
36233;SDS011;43467;50.890;5.982;2023-08-12T03:32:19;18.73;;;9.60;;
36233;SDS011;43467;50.890;5.982;2023-08-12T03:34:45;13.10;;;9.27;;
36233;SDS011;43467;50.890;5.982;2023-08-12T03:37:10;16.85;;;9.50;;
36233;SDS011;43467;50.890;5.982;2023-08-12T03:39:36;15.68;;;10.40;;
36233;SDS011;43467;50.890;5.982;2023-08-12T03:42:02;16.08;;;8.52;;
36233;SDS011;43467;50.890;5.982;2023-08-12T03:44:27;17.90;;;10.18;;
36233;SDS011;43467;50.890;5.982;2023-08-12T03:46:53;14.80;;;8.43;;
36233;SDS011;43467;50.890;5.982;2023-08-12T03:49:18;12.25;;;8.43;;
36233;SDS011;43467;50.890;5.982;2023-08-12T03:51:44;15.30;;;9.05;;
36233;SDS011;43467;50.890;5.982;2023-08-12T03:54:09;12.00;;;8.38;;
36233;SDS011;43467;50.890;5.982;2023-08-12T03:56:35;14.50;;;9.05;;
36233;SDS011;43467;50.890;5.982;2023-08-12T03:59:00;12.98;;;8.98;;
36233;SDS011;43467;50.890;5.982;2023-08-12T04:01:26;11.48;;;9.07;;
36233;SDS011;43467;50.890;5.982;2023-08-12T04:03:51;14.25;;;8.32;;
36233;SDS011;43467;50.890;5.982;2023-08-12T04:06:18;14.07;;;8.18;;
36233;SDS011;43467;50.890;5.982;2023-08-12T04:08:43;13.23;;;8.13;;
36233;SDS011;43467;50.890;5.982;2023-08-12T04:11:09;11.63;;;8.13;;
36233;SDS011;43467;50.890;5.982;2023-08-12T04:13:34;11.02;;;8.20;;
36233;SDS011;43467;50.890;5.982;2023-08-12T04:16:00;13.65;;;8.98;;
36233;SDS011;43467;50.890;5.982;2023-08-12T04:18:25;13.02;;;8.48;;
36233;SDS011;43467;50.890;5.982;2023-08-12T04:20:52;13.82;;;7.70;;
36233;SDS011;43467;50.890;5.982;2023-08-12T04:23:18;11.88;;;7.65;;
36233;SDS011;43467;50.890;5.982;2023-08-12T04:25:47;12.15;;;7.25;;
36233;SDS011;43467;50.890;5.982;2023-08-12T04:28:13;10.23;;;7.03;;
36233;SDS011;43467;50.890;5.982;2023-08-12T04:30:40;12.98;;;7.35;;
36233;SDS011;43467;50.890;5.982;2023-08-12T04:33:07;9.57;;;7.10;;
36233;SDS011;43467;50.890;5.982;2023-08-12T04:35:35;12.35;;;7.57;;
36233;SDS011;43467;50.890;5.982;2023-08-12T04:38:01;12.63;;;6.95;;
36233;SDS011;43467;50.890;5.982;2023-08-12T04:40:26;8.10;;;6.05;;
36233;SDS011;43467;50.890;5.982;2023-08-12T04:42:52;7.65;;;4.57;;
36233;SDS011;43467;50.890;5.982;2023-08-12T04:45:17;7.97;;;4.20;;
36233;SDS011;43467;50.890;5.982;2023-08-12T04:47:43;7.78;;;4.20;;
36233;SDS011;43467;50.890;5.982;2023-08-12T04:50:08;4.47;;;3.58;;
36233;SDS011;43467;50.890;5.982;2023-08-12T04:52:34;5.38;;;3.40;;
36233;SDS011;43467;50.890;5.982;2023-08-12T04:55:00;6.22;;;3.30;;
36233;SDS011;43467;50.890;5.982;2023-08-12T04:57:25;6.78;;;3.65;;
36233;SDS011;43467;50.890;5.982;2023-08-12T04:59:51;7.13;;;3.55;;
36233;SDS011;43467;50.890;5.982;2023-08-12T05:02:16;6.00;;;3.90;;
36233;SDS011;43467;50.890;5.982;2023-08-12T05:04:48;4.00;;;2.88;;
36233;SDS011;43467;50.890;5.982;2023-08-12T05:07:14;3.95;;;3.05;;
36233;SDS011;43467;50.890;5.982;2023-08-12T05:09:40;5.72;;;3.00;;
36233;SDS011;43467;50.890;5.982;2023-08-12T05:12:08;7.40;;;3.30;;
36233;SDS011;43467;50.890;5.982;2023-08-12T05:14:35;6.05;;;3.70;;
36233;SDS011;43467;50.890;5.982;2023-08-12T05:17:00;4.35;;;3.10;;
36233;SDS011;43467;50.890;5.982;2023-08-12T05:19:26;5.25;;;3.20;;
36233;SDS011;43467;50.890;5.982;2023-08-12T05:21:51;6.22;;;3.90;;
36233;SDS011;43467;50.890;5.982;2023-08-12T05:24:17;5.18;;;2.90;;
36233;SDS011;43467;50.890;5.982;2023-08-12T05:26:42;6.82;;;2.90;;
36233;SDS011;43467;50.890;5.982;2023-08-12T05:29:08;7.55;;;3.67;;
36233;SDS011;43467;50.890;5.982;2023-08-12T05:31:34;4.93;;;2.78;;
36233;SDS011;43467;50.890;5.982;2023-08-12T05:33:59;6.60;;;3.47;;
36233;SDS011;43467;50.890;5.982;2023-08-12T05:36:25;5.80;;;2.88;;
36233;SDS011;43467;50.890;5.982;2023-08-12T05:38:51;6.78;;;3.17;;
36233;SDS011;43467;50.890;5.982;2023-08-12T05:41:16;3.85;;;3.10;;
36233;SDS011;43467;50.890;5.982;2023-08-12T05:43:42;4.90;;;2.30;;
36233;SDS011;43467;50.890;5.982;2023-08-12T05:46:08;4.80;;;2.70;;
36233;SDS011;43467;50.890;5.982;2023-08-12T05:48:33;4.93;;;2.58;;
36233;SDS011;43467;50.890;5.982;2023-08-12T05:50:59;5.30;;;2.67;;
36233;SDS011;43467;50.890;5.982;2023-08-12T05:53:25;6.28;;;2.88;;
36233;SDS011;43467;50.890;5.982;2023-08-12T05:55:50;3.80;;;2.55;;
36233;SDS011;43467;50.890;5.982;2023-08-12T05:58:16;4.97;;;3.25;;
36233;SDS011;43467;50.890;5.982;2023-08-12T06:00:42;4.30;;;2.72;;
36233;SDS011;43467;50.890;5.982;2023-08-12T06:03:11;3.50;;;2.63;;
36233;SDS011;43467;50.890;5.982;2023-08-12T06:05:38;5.88;;;2.65;;
36233;SDS011;43467;50.890;5.982;2023-08-12T06:08:04;4.95;;;2.90;;
36233;SDS011;43467;50.890;5.982;2023-08-12T06:10:30;3.03;;;2.10;;
36233;SDS011;43467;50.890;5.982;2023-08-12T06:12:56;4.78;;;2.88;;
36233;SDS011;43467;50.890;5.982;2023-08-12T06:15:22;5.75;;;2.67;;
36233;SDS011;43467;50.890;5.982;2023-08-12T06:17:48;4.03;;;2.10;;
36233;SDS011;43467;50.890;5.982;2023-08-12T06:20:14;5.30;;;2.80;;
36233;SDS011;43467;50.890;5.982;2023-08-12T06:22:40;3.60;;;2.25;;
36233;SDS011;43467;50.890;5.982;2023-08-12T06:25:06;6.53;;;2.50;;
36233;SDS011;43467;50.890;5.982;2023-08-12T06:27:32;2.75;;;2.30;;
36233;SDS011;43467;50.890;5.982;2023-08-12T06:29:57;2.40;;;2.08;;
36233;SDS011;43467;50.890;5.982;2023-08-12T06:32:23;3.92;;;2.55;;
36233;SDS011;43467;50.890;5.982;2023-08-12T06:34:49;4.75;;;2.58;;
36233;SDS011;43467;50.890;5.982;2023-08-12T06:37:15;4.55;;;2.40;;
36233;SDS011;43467;50.890;5.982;2023-08-12T06:39:42;4.13;;;2.30;;
36233;SDS011;43467;50.890;5.982;2023-08-12T06:42:08;3.15;;;1.88;;
36233;SDS011;43467;50.890;5.982;2023-08-12T06:44:33;3.67;;;2.20;;
36233;SDS011;43467;50.890;5.982;2023-08-12T06:47:01;3.75;;;1.90;;
36233;SDS011;43467;50.890;5.982;2023-08-12T06:49:26;4.28;;;2.47;;
36233;SDS011;43467;50.890;5.982;2023-08-12T06:51:52;5.22;;;2.10;;
36233;SDS011;43467;50.890;5.982;2023-08-12T06:54:18;3.38;;;2.22;;
36233;SDS011;43467;50.890;5.982;2023-08-12T06:56:44;3.72;;;2.42;;
36233;SDS011;43467;50.890;5.982;2023-08-12T06:59:10;4.13;;;1.90;;
36233;SDS011;43467;50.890;5.982;2023-08-12T07:01:36;3.05;;;2.22;;
36233;SDS011;43467;50.890;5.982;2023-08-12T07:04:02;3.08;;;1.95;;
36233;SDS011;43467;50.890;5.982;2023-08-12T07:06:27;3.95;;;2.28;;
36233;SDS011;43467;50.890;5.982;2023-08-12T07:08:53;3.53;;;2.33;;
36233;SDS011;43467;50.890;5.982;2023-08-12T07:11:19;2.63;;;1.90;;
36233;SDS011;43467;50.890;5.982;2023-08-12T07:13:44;3.95;;;2.35;;
36233;SDS011;43467;50.890;5.982;2023-08-12T07:16:11;3.88;;;2.47;;
36233;SDS011;43467;50.890;5.982;2023-08-12T07:18:37;3.88;;;2.17;;
36233;SDS011;43467;50.890;5.982;2023-08-12T07:21:03;2.63;;;1.90;;
36233;SDS011;43467;50.890;5.982;2023-08-12T07:23:28;3.83;;;2.22;;
36233;SDS011;43467;50.890;5.982;2023-08-12T07:25:54;3.58;;;2.40;;
36233;SDS011;43467;50.890;5.982;2023-08-12T07:28:20;3.45;;;3.00;;
36233;SDS011;43467;50.890;5.982;2023-08-12T07:30:46;6.88;;;3.75;;
36233;SDS011;43467;50.890;5.982;2023-08-12T07:33:14;5.32;;;3.33;;
36233;SDS011;43467;50.890;5.982;2023-08-12T07:35:39;3.78;;;2.33;;
36233;SDS011;43467;50.890;5.982;2023-08-12T07:38:06;5.72;;;2.65;;
36233;SDS011;43467;50.890;5.982;2023-08-12T07:40:32;3.45;;;2.05;;
36233;SDS011;43467;50.890;5.982;2023-08-12T07:43:00;2.10;;;1.77;;
36233;SDS011;43467;50.890;5.982;2023-08-12T07:45:26;2.35;;;1.80;;
36233;SDS011;43467;50.890;5.982;2023-08-12T07:47:52;2.95;;;1.98;;
36233;SDS011;43467;50.890;5.982;2023-08-12T07:50:19;3.53;;;2.00;;
36233;SDS011;43467;50.890;5.982;2023-08-12T07:52:45;9.30;;;1.95;;
36233;SDS011;43467;50.890;5.982;2023-08-12T07:55:11;2.85;;;1.92;;
36233;SDS011;43467;50.890;5.982;2023-08-12T07:57:37;3.45;;;1.77;;
36233;SDS011;43467;50.890;5.982;2023-08-12T08:00:03;3.13;;;1.60;;
36233;SDS011;43467;50.890;5.982;2023-08-12T08:02:30;3.05;;;1.65;;
36233;SDS011;43467;50.890;5.982;2023-08-12T08:04:56;2.05;;;1.45;;
36233;SDS011;43467;50.890;5.982;2023-08-12T08:07:21;2.60;;;1.90;;
36233;SDS011;43467;50.890;5.982;2023-08-12T08:09:47;2.15;;;1.80;;
36233;SDS011;43467;50.890;5.982;2023-08-12T08:12:14;3.83;;;2.03;;
36233;SDS011;43467;50.890;5.982;2023-08-12T08:14:40;3.95;;;1.60;;
36233;SDS011;43467;50.890;5.982;2023-08-12T08:17:06;2.00;;;1.65;;
36233;SDS011;43467;50.890;5.982;2023-08-12T08:19:32;1.80;;;1.63;;
36233;SDS011;43467;50.890;5.982;2023-08-12T08:21:58;3.47;;;2.00;;
36233;SDS011;43467;50.890;5.982;2023-08-12T08:24:24;2.80;;;1.50;;
36233;SDS011;43467;50.890;5.982;2023-08-12T08:26:51;2.50;;;1.60;;
36233;SDS011;43467;50.890;5.982;2023-08-12T08:29:17;2.30;;;1.42;;
36233;SDS011;43467;50.890;5.982;2023-08-12T08:31:43;2.40;;;1.38;;
36233;SDS011;43467;50.890;5.982;2023-08-12T08:34:10;2.42;;;1.70;;
36233;SDS011;43467;50.890;5.982;2023-08-12T08:36:35;1.83;;;1.40;;
36233;SDS011;43467;50.890;5.982;2023-08-12T08:39:01;1.83;;;1.40;;
36233;SDS011;43467;50.890;5.982;2023-08-12T08:41:28;1.45;;;1.35;;
36233;SDS011;43467;50.890;5.982;2023-08-12T08:43:59;2.17;;;1.42;;
36233;SDS011;43467;50.890;5.982;2023-08-12T08:46:29;1.10;;;1.00;;
36233;SDS011;43467;50.890;5.982;2023-08-12T08:48:55;3.17;;;1.38;;
36233;SDS011;43467;50.890;5.982;2023-08-12T08:51:26;1.23;;;1.10;;
36233;SDS011;43467;50.890;5.982;2023-08-12T08:54:04;4.22;;;1.50;;
36233;SDS011;43467;50.890;5.982;2023-08-12T08:56:31;1.35;;;1.15;;
36233;SDS011;43467;50.890;5.982;2023-08-12T08:59:01;2.70;;;1.08;;
36233;SDS011;43467;50.890;5.982;2023-08-12T09:01:27;2.15;;;1.20;;
36233;SDS011;43467;50.890;5.982;2023-08-12T09:03:54;2.65;;;1.40;;
36233;SDS011;43467;50.890;5.982;2023-08-12T09:06:21;1.10;;;1.00;;
36233;SDS011;43467;50.890;5.982;2023-08-12T09:08:51;1.40;;;0.90;;
36233;SDS011;43467;50.890;5.982;2023-08-12T09:11:18;1.27;;;0.90;;
36233;SDS011;43467;50.890;5.982;2023-08-12T09:13:45;1.55;;;1.10;;
36233;SDS011;43467;50.890;5.982;2023-08-12T09:16:11;3.17;;;1.30;;
36233;SDS011;43467;50.890;5.982;2023-08-12T09:18:37;5.07;;;1.58;;
36233;SDS011;43467;50.890;5.982;2023-08-12T09:21:06;2.20;;;1.20;;
36233;SDS011;43467;50.890;5.982;2023-08-12T09:23:36;2.42;;;1.40;;
36233;SDS011;43467;50.890;5.982;2023-08-12T09:26:08;1.38;;;1.08;;
36233;SDS011;43467;50.890;5.982;2023-08-12T09:28:39;1.65;;;1.10;;
36233;SDS011;43467;50.890;5.982;2023-08-12T09:31:05;1.35;;;1.10;;
36233;SDS011;43467;50.890;5.982;2023-08-12T09:33:32;1.85;;;1.00;;
36233;SDS011;43467;50.890;5.982;2023-08-12T09:35:58;2.00;;;1.00;;
36233;SDS011;43467;50.890;5.982;2023-08-12T09:38:24;1.98;;;1.40;;
36233;SDS011;43467;50.890;5.982;2023-08-12T09:40:52;1.60;;;1.02;;
36233;SDS011;43467;50.890;5.982;2023-08-12T09:43:23;2.22;;;1.20;;
36233;SDS011;43467;50.890;5.982;2023-08-12T09:45:49;1.80;;;1.25;;
36233;SDS011;43467;50.890;5.982;2023-08-12T09:48:16;1.70;;;1.15;;
36233;SDS011;43467;50.890;5.982;2023-08-12T09:50:42;1.30;;;1.05;;
36233;SDS011;43467;50.890;5.982;2023-08-12T09:53:09;4.75;;;1.73;;
36233;SDS011;43467;50.890;5.982;2023-08-12T09:55:36;5.57;;;1.38;;
36233;SDS011;43467;50.890;5.982;2023-08-12T09:58:05;3.50;;;1.38;;
36233;SDS011;43467;50.890;5.982;2023-08-12T10:00:33;1.70;;;1.10;;
36233;SDS011;43467;50.890;5.982;2023-08-12T10:02:59;2.72;;;1.33;;
36233;SDS011;43467;50.890;5.982;2023-08-12T10:05:27;1.10;;;0.90;;
36233;SDS011;43467;50.890;5.982;2023-08-12T10:07:56;1.55;;;0.98;;
36233;SDS011;43467;50.890;5.982;2023-08-12T10:10:26;1.85;;;1.00;;
36233;SDS011;43467;50.890;5.982;2023-08-12T10:12:56;1.83;;;1.15;;
36233;SDS011;43467;50.890;5.982;2023-08-12T10:15:21;1.50;;;0.90;;
36233;SDS011;43467;50.890;5.982;2023-08-12T10:17:48;2.30;;;1.17;;
36233;SDS011;43467;50.890;5.982;2023-08-12T10:20:19;2.20;;;1.33;;
36233;SDS011;43467;50.890;5.982;2023-08-12T10:22:50;0.73;;;0.67;;
36233;SDS011;43467;50.890;5.982;2023-08-12T10:25:18;5.20;;;1.63;;
36233;SDS011;43467;50.890;5.982;2023-08-12T10:27:48;4.15;;;1.83;;
36233;SDS011;43467;50.890;5.982;2023-08-12T10:30:15;2.58;;;1.55;;
36233;SDS011;43467;50.890;5.982;2023-08-12T10:32:42;1.83;;;1.40;;
36233;SDS011;43467;50.890;5.982;2023-08-12T10:35:08;4.50;;;1.83;;
36233;SDS011;43467;50.890;5.982;2023-08-12T10:37:35;5.25;;;1.60;;
36233;SDS011;43467;50.890;5.982;2023-08-12T10:40:04;4.85;;;1.30;;
36233;SDS011;43467;50.890;5.982;2023-08-12T10:45:12;1.27;;;0.80;;
36233;SDS011;43467;50.890;5.982;2023-08-12T10:50:34;2.03;;;1.00;;
36233;SDS011;43467;50.890;5.982;2023-08-12T10:53:20;1.70;;;0.80;;
36233;SDS011;43467;50.890;5.982;2023-08-12T10:55:55;2.17;;;1.23;;
36233;SDS011;43467;50.890;5.982;2023-08-12T10:58:40;1.75;;;1.33;;
36233;SDS011;43467;50.890;5.982;2023-08-12T11:01:17;2.88;;;1.38;;
36233;SDS011;43467;50.890;5.982;2023-08-12T11:03:44;5.43;;;1.40;;
36233;SDS011;43467;50.890;5.982;2023-08-12T11:06:11;3.03;;;1.50;;
36233;SDS011;43467;50.890;5.982;2023-08-12T11:08:45;2.42;;;1.20;;
36233;SDS011;43467;50.890;5.982;2023-08-12T11:11:24;5.18;;;1.55;;
36233;SDS011;43467;50.890;5.982;2023-08-12T11:13:54;1.20;;;0.90;;
36233;SDS011;43467;50.890;5.982;2023-08-12T11:16:34;1.92;;;1.27;;
36233;SDS011;43467;50.890;5.982;2023-08-12T11:19:02;1.98;;;1.30;;
36233;SDS011;43467;50.890;5.982;2023-08-12T11:21:29;5.30;;;1.52;;
36233;SDS011;43467;50.890;5.982;2023-08-12T11:23:56;3.95;;;2.10;;
36233;SDS011;43467;50.890;5.982;2023-08-12T11:26:23;2.22;;;1.55;;
36233;SDS011;43467;50.890;5.982;2023-08-12T11:28:49;5.93;;;1.63;;
36233;SDS011;43467;50.890;5.982;2023-08-12T11:31:19;5.60;;;3.45;;
36233;SDS011;43467;50.890;5.982;2023-08-12T11:33:48;1.85;;;0.98;;
36233;SDS011;43467;50.890;5.982;2023-08-12T11:36:13;2.65;;;1.70;;
36233;SDS011;43467;50.890;5.982;2023-08-12T11:38:40;3.15;;;2.25;;
36233;SDS011;43467;50.890;5.982;2023-08-12T11:41:09;2.65;;;1.40;;
36233;SDS011;43467;50.890;5.982;2023-08-12T11:43:36;4.35;;;2.03;;
36233;SDS011;43467;50.890;5.982;2023-08-12T11:46:02;3.40;;;2.20;;
36233;SDS011;43467;50.890;5.982;2023-08-12T11:48:28;2.53;;;1.77;;
36233;SDS011;43467;50.890;5.982;2023-08-12T11:50:54;2.88;;;2.03;;
36233;SDS011;43467;50.890;5.982;2023-08-12T11:53:23;2.58;;;1.60;;
36233;SDS011;43467;50.890;5.982;2023-08-12T11:56:16;2.40;;;1.63;;
36233;SDS011;43467;50.890;5.982;2023-08-12T12:01:54;1.95;;;1.33;;
36233;SDS011;43467;50.890;5.982;2023-08-12T12:04:27;5.43;;;1.70;;
36233;SDS011;43467;50.890;5.982;2023-08-12T12:06:55;1.42;;;1.05;;
36233;SDS011;43467;50.890;5.982;2023-08-12T12:09:22;1.73;;;1.30;;
36233;SDS011;43467;50.890;5.982;2023-08-12T12:11:51;1.40;;;1.30;;
36233;SDS011;43467;50.890;5.982;2023-08-12T12:14:18;2.70;;;1.95;;
36233;SDS011;43467;50.890;5.982;2023-08-12T12:16:44;2.83;;;1.67;;
36233;SDS011;43467;50.890;5.982;2023-08-12T12:19:21;2.53;;;1.30;;
36233;SDS011;43467;50.890;5.982;2023-08-12T12:21:51;3.75;;;1.75;;
36233;SDS011;43467;50.890;5.982;2023-08-12T12:24:21;1.52;;;1.02;;
36233;SDS011;43467;50.890;5.982;2023-08-12T12:26:47;2.60;;;1.30;;
36233;SDS011;43467;50.890;5.982;2023-08-12T12:29:13;2.05;;;1.10;;
36233;SDS011;43467;50.890;5.982;2023-08-12T12:31:39;3.33;;;1.23;;
36233;SDS011;43467;50.890;5.982;2023-08-12T12:34:06;3.28;;;1.33;;
36233;SDS011;43467;50.890;5.982;2023-08-12T12:36:36;2.72;;;1.20;;
36233;SDS011;43467;50.890;5.982;2023-08-12T12:39:03;1.88;;;1.13;;
36233;SDS011;43467;50.890;5.982;2023-08-12T12:41:30;5.10;;;1.63;;
36233;SDS011;43467;50.890;5.982;2023-08-12T12:43:56;2.45;;;1.23;;
36233;SDS011;43467;50.890;5.982;2023-08-12T12:46:22;2.78;;;1.27;;
36233;SDS011;43467;50.890;5.982;2023-08-12T12:48:48;3.13;;;1.13;;
36233;SDS011;43467;50.890;5.982;2023-08-12T12:51:14;2.72;;;1.20;;
36233;SDS011;43467;50.890;5.982;2023-08-12T12:53:40;1.90;;;1.20;;
36233;SDS011;43467;50.890;5.982;2023-08-12T12:56:08;1.52;;;0.80;;
36233;SDS011;43467;50.890;5.982;2023-08-12T12:58:35;2.58;;;0.93;;
36233;SDS011;43467;50.890;5.982;2023-08-12T13:01:02;2.15;;;0.85;;
36233;SDS011;43467;50.890;5.982;2023-08-12T13:03:32;3.17;;;1.00;;
36233;SDS011;43467;50.890;5.982;2023-08-12T13:05:58;2.40;;;1.25;;
36233;SDS011;43467;50.890;5.982;2023-08-12T13:08:24;1.73;;;1.13;;
36233;SDS011;43467;50.890;5.982;2023-08-12T13:10:50;1.70;;;0.90;;
36233;SDS011;43467;50.890;5.982;2023-08-12T13:13:17;2.30;;;0.93;;
36233;SDS011;43467;50.890;5.982;2023-08-12T13:15:43;4.25;;;1.10;;
36233;SDS011;43467;50.890;5.982;2023-08-12T13:18:10;3.58;;;1.27;;
36233;SDS011;43467;50.890;5.982;2023-08-12T13:20:36;1.50;;;1.25;;
36233;SDS011;43467;50.890;5.982;2023-08-12T13:23:02;2.40;;;1.00;;
36233;SDS011;43467;50.890;5.982;2023-08-12T13:25:30;3.95;;;2.75;;
36233;SDS011;43467;50.890;5.982;2023-08-12T13:28:00;2.38;;;1.23;;
36233;SDS011;43467;50.890;5.982;2023-08-12T13:30:27;3.63;;;1.58;;
36233;SDS011;43467;50.890;5.982;2023-08-12T13:32:53;4.90;;;1.10;;
36233;SDS011;43467;50.890;5.982;2023-08-12T13:35:19;3.35;;;1.20;;
36233;SDS011;43467;50.890;5.982;2023-08-12T13:37:45;2.15;;;0.93;;
36233;SDS011;43467;50.890;5.982;2023-08-12T13:40:11;1.95;;;1.00;;
36233;SDS011;43467;50.890;5.982;2023-08-12T13:42:37;1.83;;;1.10;;
36233;SDS011;43467;50.890;5.982;2023-08-12T13:45:03;2.58;;;1.13;;
36233;SDS011;43467;50.890;5.982;2023-08-12T13:47:30;4.80;;;1.35;;
36233;SDS011;43467;50.890;5.982;2023-08-12T13:49:56;2.00;;;1.13;;
36233;SDS011;43467;50.890;5.982;2023-08-12T13:52:22;2.58;;;1.30;;
36233;SDS011;43467;50.890;5.982;2023-08-12T13:54:47;1.58;;;0.82;;
36233;SDS011;43467;50.890;5.982;2023-08-12T13:57:13;3.10;;;1.13;;
36233;SDS011;43467;50.890;5.982;2023-08-12T13:59:39;1.23;;;1.02;;
36233;SDS011;43467;50.890;5.982;2023-08-12T14:02:08;1.80;;;0.90;;
36233;SDS011;43467;50.890;5.982;2023-08-12T14:04:37;1.13;;;0.90;;
36233;SDS011;43467;50.890;5.982;2023-08-12T14:07:06;4.38;;;1.30;;
36233;SDS011;43467;50.890;5.982;2023-08-12T14:09:32;2.55;;;1.48;;
36233;SDS011;43467;50.890;5.982;2023-08-12T14:11:59;3.58;;;1.30;;
36233;SDS011;43467;50.890;5.982;2023-08-12T14:14:25;0.93;;;0.82;;
36233;SDS011;43467;50.890;5.982;2023-08-12T14:16:53;2.45;;;1.25;;
36233;SDS011;43467;50.890;5.982;2023-08-12T14:19:21;1.63;;;1.20;;
36233;SDS011;43467;50.890;5.982;2023-08-12T14:21:47;3.10;;;1.10;;
36233;SDS011;43467;50.890;5.982;2023-08-12T14:24:13;2.03;;;1.48;;
36233;SDS011;43467;50.890;5.982;2023-08-12T14:26:39;4.03;;;1.50;;
36233;SDS011;43467;50.890;5.982;2023-08-12T14:29:05;2.83;;;1.55;;
36233;SDS011;43467;50.890;5.982;2023-08-12T14:31:31;2.95;;;1.20;;
36233;SDS011;43467;50.890;5.982;2023-08-12T14:33:57;4.28;;;1.80;;
36233;SDS011;43467;50.890;5.982;2023-08-12T14:36:23;2.33;;;1.33;;
36233;SDS011;43467;50.890;5.982;2023-08-12T14:38:52;4.18;;;1.58;;
36233;SDS011;43467;50.890;5.982;2023-08-12T14:41:18;2.92;;;1.52;;
36233;SDS011;43467;50.890;5.982;2023-08-12T14:43:46;2.17;;;1.45;;
36233;SDS011;43467;50.890;5.982;2023-08-12T14:46:12;2.35;;;1.52;;
36233;SDS011;43467;50.890;5.982;2023-08-12T14:48:38;4.82;;;1.50;;
36233;SDS011;43467;50.890;5.982;2023-08-12T14:51:03;3.50;;;1.80;;
36233;SDS011;43467;50.890;5.982;2023-08-12T14:53:29;4.45;;;1.67;;